sensor_id;sensor_type;location;lat;lon;timestamp;P1;durP1;ratioP1;P2;durP2;ratioP2
22097;SDS011;11215;51.938;8.464;2022-10-16T00:00:40;4.00;;;2.87;;
22097;SDS011;11215;51.938;8.464;2022-10-16T00:03:07;5.03;;;2.97;;
22097;SDS011;11215;51.938;8.464;2022-10-16T00:05:38;4.87;;;3.10;;
22097;SDS011;11215;51.938;8.464;2022-10-16T00:08:07;3.17;;;2.73;;
22097;SDS011;11215;51.938;8.464;2022-10-16T00:10:34;4.03;;;3.17;;
22097;SDS011;11215;51.938;8.464;2022-10-16T00:13:00;5.03;;;3.20;;
22097;SDS011;11215;51.938;8.464;2022-10-16T00:15:25;3.53;;;2.97;;
22097;SDS011;11215;51.938;8.464;2022-10-16T00:17:51;3.43;;;3.13;;
22097;SDS011;11215;51.938;8.464;2022-10-16T00:20:17;3.70;;;2.90;;
22097;SDS011;11215;51.938;8.464;2022-10-16T00:22:43;4.00;;;2.90;;
22097;SDS011;11215;51.938;8.464;2022-10-16T00:25:08;5.33;;;3.23;;
22097;SDS011;11215;51.938;8.464;2022-10-16T00:27:34;4.93;;;2.90;;
22097;SDS011;11215;51.938;8.464;2022-10-16T00:29:59;5.53;;;3.23;;
22097;SDS011;11215;51.938;8.464;2022-10-16T00:32:25;3.30;;;3.00;;
22097;SDS011;11215;51.938;8.464;2022-10-16T00:34:51;4.27;;;2.80;;
22097;SDS011;11215;51.938;8.464;2022-10-16T00:37:19;5.13;;;3.07;;
22097;SDS011;11215;51.938;8.464;2022-10-16T00:39:44;3.83;;;3.50;;
22097;SDS011;11215;51.938;8.464;2022-10-16T00:42:17;3.77;;;3.13;;
22097;SDS011;11215;51.938;8.464;2022-10-16T00:44:50;3.07;;;2.53;;
22097;SDS011;11215;51.938;8.464;2022-10-16T00:52:33;4.23;;;3.03;;
22097;SDS011;11215;51.938;8.464;2022-10-16T00:54:59;3.00;;;2.73;;
22097;SDS011;11215;51.938;8.464;2022-10-16T00:57:26;6.43;;;3.07;;
22097;SDS011;11215;51.938;8.464;2022-10-16T00:59:52;3.37;;;3.07;;
22097;SDS011;11215;51.938;8.464;2022-10-16T01:02:18;3.50;;;2.90;;
22097;SDS011;11215;51.938;8.464;2022-10-16T01:04:48;3.63;;;2.90;;
22097;SDS011;11215;51.938;8.464;2022-10-16T01:07:18;4.00;;;3.00;;
22097;SDS011;11215;51.938;8.464;2022-10-16T01:12:53;5.20;;;2.80;;
22097;SDS011;11215;51.938;8.464;2022-10-16T01:15:28;3.30;;;3.00;;
22097;SDS011;11215;51.938;8.464;2022-10-16T01:18:06;5.67;;;3.40;;
22097;SDS011;11215;51.938;8.464;2022-10-16T01:31:24;4.17;;;2.90;;
22097;SDS011;11215;51.938;8.464;2022-10-16T01:33:59;7.00;;;3.50;;
22097;SDS011;11215;51.938;8.464;2022-10-16T01:36:35;3.23;;;2.87;;
22097;SDS011;11215;51.938;8.464;2022-10-16T01:39:04;4.77;;;3.00;;
22097;SDS011;11215;51.938;8.464;2022-10-16T01:41:44;3.93;;;3.03;;
22097;SDS011;11215;51.938;8.464;2022-10-16T01:44:33;3.57;;;2.73;;
22097;SDS011;11215;51.938;8.464;2022-10-16T01:47:01;4.90;;;3.30;;
22097;SDS011;11215;51.938;8.464;2022-10-16T01:49:29;3.30;;;3.00;;
22097;SDS011;11215;51.938;8.464;2022-10-16T01:51:59;5.87;;;3.53;;
22097;SDS011;11215;51.938;8.464;2022-10-16T01:54:27;3.97;;;3.27;;
22097;SDS011;11215;51.938;8.464;2022-10-16T01:56:56;3.73;;;2.87;;
22097;SDS011;11215;51.938;8.464;2022-10-16T01:59:23;6.67;;;3.47;;
22097;SDS011;11215;51.938;8.464;2022-10-16T02:01:55;5.63;;;3.30;;
22097;SDS011;11215;51.938;8.464;2022-10-16T02:04:24;3.70;;;2.93;;
22097;SDS011;11215;51.938;8.464;2022-10-16T02:06:57;5.77;;;3.13;;
22097;SDS011;11215;51.938;8.464;2022-10-16T02:09:24;7.10;;;3.13;;
22097;SDS011;11215;51.938;8.464;2022-10-16T02:11:50;5.33;;;3.70;;
22097;SDS011;11215;51.938;8.464;2022-10-16T02:14:20;3.60;;;2.90;;
22097;SDS011;11215;51.938;8.464;2022-10-16T02:16:49;4.80;;;3.50;;
22097;SDS011;11215;51.938;8.464;2022-10-16T02:19:15;7.80;;;3.77;;
22097;SDS011;11215;51.938;8.464;2022-10-16T02:21:56;4.67;;;3.53;;
22097;SDS011;11215;51.938;8.464;2022-10-16T02:27:14;4.00;;;3.53;;
22097;SDS011;11215;51.938;8.464;2022-10-16T02:32:50;5.13;;;3.87;;
22097;SDS011;11215;51.938;8.464;2022-10-16T02:35:18;4.30;;;3.57;;
22097;SDS011;11215;51.938;8.464;2022-10-16T02:37:46;7.60;;;3.63;;
22097;SDS011;11215;51.938;8.464;2022-10-16T02:40:13;5.00;;;3.63;;
22097;SDS011;11215;51.938;8.464;2022-10-16T02:42:40;5.07;;;3.67;;
22097;SDS011;11215;51.938;8.464;2022-10-16T02:45:06;5.07;;;3.80;;
22097;SDS011;11215;51.938;8.464;2022-10-16T02:47:34;5.90;;;3.00;;
22097;SDS011;11215;51.938;8.464;2022-10-16T02:49:59;4.97;;;3.47;;
22097;SDS011;11215;51.938;8.464;2022-10-16T02:52:25;8.37;;;3.50;;
22097;SDS011;11215;51.938;8.464;2022-10-16T02:54:51;6.63;;;3.50;;
22097;SDS011;11215;51.938;8.464;2022-10-16T02:57:17;4.87;;;3.23;;
22097;SDS011;11215;51.938;8.464;2022-10-16T02:59:43;3.03;;;2.43;;
22097;SDS011;11215;51.938;8.464;2022-10-16T03:02:08;3.40;;;2.63;;
22097;SDS011;11215;51.938;8.464;2022-10-16T03:04:34;5.07;;;2.90;;
22097;SDS011;11215;51.938;8.464;2022-10-16T03:07:00;5.80;;;2.90;;
22097;SDS011;11215;51.938;8.464;2022-10-16T03:09:25;4.93;;;2.90;;
22097;SDS011;11215;51.938;8.464;2022-10-16T03:11:51;3.93;;;2.77;;
22097;SDS011;11215;51.938;8.464;2022-10-16T03:14:17;4.73;;;2.60;;
22097;SDS011;11215;51.938;8.464;2022-10-16T03:16:42;3.20;;;2.60;;
22097;SDS011;11215;51.938;8.464;2022-10-16T03:19:08;3.00;;;2.53;;
22097;SDS011;11215;51.938;8.464;2022-10-16T03:21:34;4.40;;;2.70;;
22097;SDS011;11215;51.938;8.464;2022-10-16T03:23:59;4.07;;;2.87;;
22097;SDS011;11215;51.938;8.464;2022-10-16T03:26:25;3.80;;;2.90;;
22097;SDS011;11215;51.938;8.464;2022-10-16T03:28:50;4.30;;;2.80;;
22097;SDS011;11215;51.938;8.464;2022-10-16T03:31:16;3.87;;;2.33;;
22097;SDS011;11215;51.938;8.464;2022-10-16T03:33:41;3.13;;;2.77;;
22097;SDS011;11215;51.938;8.464;2022-10-16T03:36:07;3.57;;;2.53;;
22097;SDS011;11215;51.938;8.464;2022-10-16T03:38:33;4.13;;;2.73;;
22097;SDS011;11215;51.938;8.464;2022-10-16T03:40:58;3.20;;;2.37;;
22097;SDS011;11215;51.938;8.464;2022-10-16T03:43:24;3.10;;;2.80;;
22097;SDS011;11215;51.938;8.464;2022-10-16T03:45:50;3.43;;;2.93;;
22097;SDS011;11215;51.938;8.464;2022-10-16T03:48:16;4.10;;;2.83;;
22097;SDS011;11215;51.938;8.464;2022-10-16T03:50:42;3.07;;;2.67;;
22097;SDS011;11215;51.938;8.464;2022-10-16T03:53:09;6.10;;;2.90;;
22097;SDS011;11215;51.938;8.464;2022-10-16T03:55:35;3.87;;;2.83;;
22097;SDS011;11215;51.938;8.464;2022-10-16T03:58:00;3.60;;;2.93;;
22097;SDS011;11215;51.938;8.464;2022-10-16T04:00:26;4.13;;;2.50;;
22097;SDS011;11215;51.938;8.464;2022-10-16T04:02:52;3.87;;;2.90;;
22097;SDS011;11215;51.938;8.464;2022-10-16T04:05:17;3.53;;;3.13;;
22097;SDS011;11215;51.938;8.464;2022-10-16T04:07:43;3.07;;;2.60;;
22097;SDS011;11215;51.938;8.464;2022-10-16T04:10:08;2.50;;;2.30;;
22097;SDS011;11215;51.938;8.464;2022-10-16T04:12:34;3.47;;;2.00;;
22097;SDS011;11215;51.938;8.464;2022-10-16T04:15:00;2.83;;;2.60;;
22097;SDS011;11215;51.938;8.464;2022-10-16T04:17:25;3.67;;;2.63;;
22097;SDS011;11215;51.938;8.464;2022-10-16T04:19:51;4.17;;;3.17;;
22097;SDS011;11215;51.938;8.464;2022-10-16T04:22:16;22.40;;;16.03;;
22097;SDS011;11215;51.938;8.464;2022-10-16T04:24:42;11.27;;;9.73;;
22097;SDS011;11215;51.938;8.464;2022-10-16T04:27:07;12.03;;;8.60;;
22097;SDS011;11215;51.938;8.464;2022-10-16T04:29:33;10.47;;;8.63;;
22097;SDS011;11215;51.938;8.464;2022-10-16T04:31:59;9.03;;;6.50;;
22097;SDS011;11215;51.938;8.464;2022-10-16T04:34:24;6.40;;;5.57;;
22097;SDS011;11215;51.938;8.464;2022-10-16T04:36:50;9.30;;;6.20;;
22097;SDS011;11215;51.938;8.464;2022-10-16T04:39:15;6.80;;;6.10;;
22097;SDS011;11215;51.938;8.464;2022-10-16T04:41:41;10.00;;;7.37;;
22097;SDS011;11215;51.938;8.464;2022-10-16T04:44:07;21.17;;;18.70;;
22097;SDS011;11215;51.938;8.464;2022-10-16T04:46:33;9.57;;;8.57;;
22097;SDS011;11215;51.938;8.464;2022-10-16T04:48:58;10.70;;;9.60;;
22097;SDS011;11215;51.938;8.464;2022-10-16T04:51:24;30.30;;;25.40;;
22097;SDS011;11215;51.938;8.464;2022-10-16T04:53:50;20.47;;;18.27;;
22097;SDS011;11215;51.938;8.464;2022-10-16T04:56:16;18.13;;;15.20;;
22097;SDS011;11215;51.938;8.464;2022-10-16T04:58:42;9.87;;;8.87;;
22097;SDS011;11215;51.938;8.464;2022-10-16T05:01:08;6.63;;;6.00;;
22097;SDS011;11215;51.938;8.464;2022-10-16T05:03:33;5.90;;;5.33;;
22097;SDS011;11215;51.938;8.464;2022-10-16T05:05:59;6.53;;;4.63;;
22097;SDS011;11215;51.938;8.464;2022-10-16T05:08:24;6.37;;;5.07;;
22097;SDS011;11215;51.938;8.464;2022-10-16T05:10:50;6.77;;;4.50;;
22097;SDS011;11215;51.938;8.464;2022-10-16T05:13:16;4.63;;;3.90;;
22097;SDS011;11215;51.938;8.464;2022-10-16T05:15:41;4.70;;;3.67;;
22097;SDS011;11215;51.938;8.464;2022-10-16T05:18:08;5.10;;;3.70;;
22097;SDS011;11215;51.938;8.464;2022-10-16T05:20:33;5.00;;;4.37;;
22097;SDS011;11215;51.938;8.464;2022-10-16T05:22:59;3.60;;;3.30;;
22097;SDS011;11215;51.938;8.464;2022-10-16T05:25:25;3.90;;;3.40;;
22097;SDS011;11215;51.938;8.464;2022-10-16T05:27:50;3.87;;;3.03;;
22097;SDS011;11215;51.938;8.464;2022-10-16T05:30:17;6.77;;;4.70;;
22097;SDS011;11215;51.938;8.464;2022-10-16T05:32:46;8.03;;;6.80;;
22097;SDS011;11215;51.938;8.464;2022-10-16T05:35:16;6.17;;;5.57;;
22097;SDS011;11215;51.938;8.464;2022-10-16T05:37:42;8.83;;;7.53;;
22097;SDS011;11215;51.938;8.464;2022-10-16T05:40:08;8.80;;;8.00;;
22097;SDS011;11215;51.938;8.464;2022-10-16T05:42:34;9.43;;;8.33;;
22097;SDS011;11215;51.938;8.464;2022-10-16T05:45:00;9.23;;;7.67;;
22097;SDS011;11215;51.938;8.464;2022-10-16T05:47:25;11.70;;;9.43;;
22097;SDS011;11215;51.938;8.464;2022-10-16T05:49:51;10.97;;;9.90;;
22097;SDS011;11215;51.938;8.464;2022-10-16T05:52:17;8.90;;;7.70;;
22097;SDS011;11215;51.938;8.464;2022-10-16T05:54:42;9.57;;;8.63;;
22097;SDS011;11215;51.938;8.464;2022-10-16T05:57:08;7.67;;;6.97;;
22097;SDS011;11215;51.938;8.464;2022-10-16T05:59:34;10.10;;;9.20;;
22097;SDS011;11215;51.938;8.464;2022-10-16T06:01:59;10.47;;;6.97;;
22097;SDS011;11215;51.938;8.464;2022-10-16T06:04:25;7.00;;;6.33;;
22097;SDS011;11215;51.938;8.464;2022-10-16T06:06:51;10.03;;;8.93;;
22097;SDS011;11215;51.938;8.464;2022-10-16T06:09:16;11.10;;;9.50;;
22097;SDS011;11215;51.938;8.464;2022-10-16T06:11:42;7.67;;;6.97;;
22097;SDS011;11215;51.938;8.464;2022-10-16T06:14:07;9.50;;;7.80;;
22097;SDS011;11215;51.938;8.464;2022-10-16T06:16:34;9.30;;;8.17;;
22097;SDS011;11215;51.938;8.464;2022-10-16T06:19:01;6.13;;;5.57;;
22097;SDS011;11215;51.938;8.464;2022-10-16T06:21:29;4.57;;;4.17;;
22097;SDS011;11215;51.938;8.464;2022-10-16T06:23:56;5.30;;;3.33;;
22097;SDS011;11215;51.938;8.464;2022-10-16T06:26:24;4.37;;;3.27;;
22097;SDS011;11215;51.938;8.464;2022-10-16T06:28:51;4.20;;;3.87;;
22097;SDS011;11215;51.938;8.464;2022-10-16T06:31:18;3.40;;;3.10;;
22097;SDS011;11215;51.938;8.464;2022-10-16T06:33:44;2.97;;;2.50;;
22097;SDS011;11215;51.938;8.464;2022-10-16T06:36:13;2.80;;;2.60;;
22097;SDS011;11215;51.938;8.464;2022-10-16T06:38:41;2.40;;;2.07;;
22097;SDS011;11215;51.938;8.464;2022-10-16T06:41:07;2.37;;;1.90;;
22097;SDS011;11215;51.938;8.464;2022-10-16T06:43:36;3.00;;;2.27;;
22097;SDS011;11215;51.938;8.464;2022-10-16T06:46:02;2.03;;;1.73;;
22097;SDS011;11215;51.938;8.464;2022-10-16T06:48:29;2.43;;;2.00;;
22097;SDS011;11215;51.938;8.464;2022-10-16T06:53:33;1.60;;;1.50;;
22097;SDS011;11215;51.938;8.464;2022-10-16T06:56:10;3.07;;;1.77;;
22097;SDS011;11215;51.938;8.464;2022-10-16T06:58:40;1.60;;;1.50;;
22097;SDS011;11215;51.938;8.464;2022-10-16T07:01:07;3.10;;;1.43;;
22097;SDS011;11215;51.938;8.464;2022-10-16T07:03:35;1.50;;;1.40;;
22097;SDS011;11215;51.938;8.464;2022-10-16T07:06:03;2.80;;;1.60;;
22097;SDS011;11215;51.938;8.464;2022-10-16T07:08:33;1.63;;;1.53;;
22097;SDS011;11215;51.938;8.464;2022-10-16T07:11:04;2.97;;;1.90;;
22097;SDS011;11215;51.938;8.464;2022-10-16T07:13:38;3.40;;;2.20;;
22097;SDS011;11215;51.938;8.464;2022-10-16T07:16:13;2.83;;;1.40;;
22097;SDS011;11215;51.938;8.464;2022-10-16T07:21:34;3.87;;;2.23;;
22097;SDS011;11215;51.938;8.464;2022-10-16T07:24:30;2.20;;;1.87;;
22097;SDS011;11215;51.938;8.464;2022-10-16T07:27:18;3.33;;;2.07;;
22097;SDS011;11215;51.938;8.464;2022-10-16T07:29:47;3.20;;;2.20;;
22097;SDS011;11215;51.938;8.464;2022-10-16T07:32:13;2.10;;;1.50;;
22097;SDS011;11215;51.938;8.464;2022-10-16T07:34:38;1.40;;;1.30;;
22097;SDS011;11215;51.938;8.464;2022-10-16T07:37:05;1.73;;;1.53;;
22097;SDS011;11215;51.938;8.464;2022-10-16T07:39:31;2.27;;;1.33;;
22097;SDS011;11215;51.938;8.464;2022-10-16T07:41:57;1.30;;;1.20;;
22097;SDS011;11215;51.938;8.464;2022-10-16T07:44:23;2.20;;;1.50;;
22097;SDS011;11215;51.938;8.464;2022-10-16T07:46:49;3.40;;;1.93;;
22097;SDS011;11215;51.938;8.464;2022-10-16T07:49:14;1.47;;;1.17;;
22097;SDS011;11215;51.938;8.464;2022-10-16T07:51:40;1.77;;;1.30;;
22097;SDS011;11215;51.938;8.464;2022-10-16T07:54:07;1.30;;;1.20;;
22097;SDS011;11215;51.938;8.464;2022-10-16T07:56:34;3.10;;;1.20;;
22097;SDS011;11215;51.938;8.464;2022-10-16T07:59:00;1.60;;;1.20;;
22097;SDS011;11215;51.938;8.464;2022-10-16T08:01:26;1.37;;;1.27;;
22097;SDS011;11215;51.938;8.464;2022-10-16T08:03:52;2.23;;;1.30;;
22097;SDS011;11215;51.938;8.464;2022-10-16T08:06:19;5.97;;;4.13;;
22097;SDS011;11215;51.938;8.464;2022-10-16T08:08:49;3.17;;;1.67;;
22097;SDS011;11215;51.938;8.464;2022-10-16T08:11:15;1.70;;;1.60;;
22097;SDS011;11215;51.938;8.464;2022-10-16T08:13:41;1.73;;;1.50;;
22097;SDS011;11215;51.938;8.464;2022-10-16T08:16:07;2.63;;;1.70;;
22097;SDS011;11215;51.938;8.464;2022-10-16T08:18:34;2.77;;;1.40;;
22097;SDS011;11215;51.938;8.464;2022-10-16T08:21:00;1.10;;;1.00;;
22097;SDS011;11215;51.938;8.464;2022-10-16T08:23:27;1.87;;;1.20;;
22097;SDS011;11215;51.938;8.464;2022-10-16T08:25:54;1.40;;;1.30;;
22097;SDS011;11215;51.938;8.464;2022-10-16T08:28:21;3.43;;;1.20;;
22097;SDS011;11215;51.938;8.464;2022-10-16T08:30:48;1.83;;;1.33;;
22097;SDS011;11215;51.938;8.464;2022-10-16T08:33:13;1.43;;;1.00;;
22097;SDS011;11215;51.938;8.464;2022-10-16T08:35:40;2.00;;;1.30;;
22097;SDS011;11215;51.938;8.464;2022-10-16T08:38:06;1.77;;;1.37;;
22097;SDS011;11215;51.938;8.464;2022-10-16T08:40:33;1.80;;;1.33;;
22097;SDS011;11215;51.938;8.464;2022-10-16T08:45:43;1.63;;;1.30;;
22097;SDS011;11215;51.938;8.464;2022-10-16T08:51:06;1.73;;;1.50;;
22097;SDS011;11215;51.938;8.464;2022-10-16T08:53:48;1.70;;;1.37;;
22097;SDS011;11215;51.938;8.464;2022-10-16T08:56:18;1.30;;;1.20;;
22097;SDS011;11215;51.938;8.464;2022-10-16T08:58:44;1.40;;;1.30;;
22097;SDS011;11215;51.938;8.464;2022-10-16T09:01:12;1.73;;;1.20;;
22097;SDS011;11215;51.938;8.464;2022-10-16T09:12:04;2.40;;;0.90;;
22097;SDS011;11215;51.938;8.464;2022-10-16T09:20:23;2.57;;;1.20;;
22097;SDS011;11215;51.938;8.464;2022-10-16T09:23:10;3.30;;;1.40;;
22097;SDS011;11215;51.938;8.464;2022-10-16T09:25:44;2.10;;;1.27;;
22097;SDS011;11215;51.938;8.464;2022-10-16T09:28:12;2.60;;;1.80;;
22097;SDS011;11215;51.938;8.464;2022-10-16T09:30:39;2.67;;;1.67;;
22097;SDS011;11215;51.938;8.464;2022-10-16T09:33:05;2.90;;;1.50;;
22097;SDS011;11215;51.938;8.464;2022-10-16T09:35:37;2.47;;;1.43;;
22097;SDS011;11215;51.938;8.464;2022-10-16T09:38:04;4.17;;;1.70;;
22097;SDS011;11215;51.938;8.464;2022-10-16T09:45:57;2.77;;;1.70;;
22097;SDS011;11215;51.938;8.464;2022-10-16T09:48:44;2.90;;;1.70;;
22097;SDS011;11215;51.938;8.464;2022-10-16T09:51:16;2.90;;;1.30;;
22097;SDS011;11215;51.938;8.464;2022-10-16T09:53:53;3.07;;;1.67;;
22097;SDS011;11215;51.938;8.464;2022-10-16T09:56:34;2.60;;;1.77;;
22097;SDS011;11215;51.938;8.464;2022-10-16T09:59:10;3.93;;;1.20;;
22097;SDS011;11215;51.938;8.464;2022-10-16T10:01:39;3.97;;;1.10;;
22097;SDS011;11215;51.938;8.464;2022-10-16T10:04:16;2.67;;;0.90;;
22097;SDS011;11215;51.938;8.464;2022-10-16T10:06:43;3.67;;;1.20;;
22097;SDS011;11215;51.938;8.464;2022-10-16T10:09:24;1.17;;;1.00;;
22097;SDS011;11215;51.938;8.464;2022-10-16T10:12:00;3.37;;;0.90;;
22097;SDS011;11215;51.938;8.464;2022-10-16T10:14:47;2.07;;;0.83;;
22097;SDS011;11215;51.938;8.464;2022-10-16T10:17:16;1.50;;;0.73;;
22097;SDS011;11215;51.938;8.464;2022-10-16T10:19:57;1.73;;;0.83;;
22097;SDS011;11215;51.938;8.464;2022-10-16T10:22:43;3.47;;;0.80;;
22097;SDS011;11215;51.938;8.464;2022-10-16T10:27:50;2.20;;;0.97;;
22097;SDS011;11215;51.938;8.464;2022-10-16T10:30:27;0.97;;;0.60;;
22097;SDS011;11215;51.938;8.464;2022-10-16T10:35:44;1.87;;;0.80;;
22097;SDS011;11215;51.938;8.464;2022-10-16T10:49:16;4.47;;;1.10;;
22097;SDS011;11215;51.938;8.464;2022-10-16T10:57:29;1.90;;;0.63;;
22097;SDS011;11215;51.938;8.464;2022-10-16T11:05:51;3.07;;;0.87;;
22097;SDS011;11215;51.938;8.464;2022-10-16T11:08:36;1.90;;;0.90;;
22097;SDS011;11215;51.938;8.464;2022-10-16T11:13:51;3.30;;;0.90;;
22097;SDS011;11215;51.938;8.464;2022-10-16T11:16:43;2.03;;;1.17;;
22097;SDS011;11215;51.938;8.464;2022-10-16T11:19:29;1.73;;;0.70;;
22097;SDS011;11215;51.938;8.464;2022-10-16T11:24:59;2.87;;;1.30;;
22097;SDS011;11215;51.938;8.464;2022-10-16T11:27:41;2.07;;;1.17;;
22097;SDS011;11215;51.938;8.464;2022-10-16T11:30:12;2.70;;;0.83;;
22097;SDS011;11215;51.938;8.464;2022-10-16T11:32:47;2.20;;;1.00;;
22097;SDS011;11215;51.938;8.464;2022-10-16T11:38:14;1.47;;;1.00;;
22097;SDS011;11215;51.938;8.464;2022-10-16T11:40:48;1.47;;;0.83;;
22097;SDS011;11215;51.938;8.464;2022-10-16T11:43:22;2.03;;;0.70;;
22097;SDS011;11215;51.938;8.464;2022-10-16T11:45:53;2.30;;;0.70;;
22097;SDS011;11215;51.938;8.464;2022-10-16T11:48:27;1.00;;;0.70;;
22097;SDS011;11215;51.938;8.464;2022-10-16T11:51:19;2.47;;;0.87;;
22097;SDS011;11215;51.938;8.464;2022-10-16T11:53:56;1.93;;;1.10;;
22097;SDS011;11215;51.938;8.464;2022-10-16T11:56:26;1.33;;;0.60;;
22097;SDS011;11215;51.938;8.464;2022-10-16T11:59:00;2.23;;;1.00;;
22097;SDS011;11215;51.938;8.464;2022-10-16T12:04:17;1.33;;;1.10;;
22097;SDS011;11215;51.938;8.464;2022-10-16T12:06:55;1.43;;;0.83;;
22097;SDS011;11215;51.938;8.464;2022-10-16T12:11:49;1.17;;;0.67;;
22097;SDS011;11215;51.938;8.464;2022-10-16T12:16:55;2.40;;;0.87;;
22097;SDS011;11215;51.938;8.464;2022-10-16T12:19:25;3.60;;;0.97;;
22097;SDS011;11215;51.938;8.464;2022-10-16T12:21:54;1.47;;;0.73;;
22097;SDS011;11215;51.938;8.464;2022-10-16T12:24:38;2.33;;;0.90;;
22097;SDS011;11215;51.938;8.464;2022-10-16T12:30:05;0.70;;;0.70;;
22097;SDS011;11215;51.938;8.464;2022-10-16T12:32:33;0.83;;;0.60;;
22097;SDS011;11215;51.938;8.464;2022-10-16T12:35:04;0.93;;;0.80;;
22097;SDS011;11215;51.938;8.464;2022-10-16T12:37:33;2.07;;;0.90;;
22097;SDS011;11215;51.938;8.464;2022-10-16T12:40:11;1.83;;;1.10;;
22097;SDS011;11215;51.938;8.464;2022-10-16T12:42:39;1.23;;;0.97;;
22097;SDS011;11215;51.938;8.464;2022-10-16T12:47:52;1.27;;;0.70;;
22097;SDS011;11215;51.938;8.464;2022-10-16T12:50:52;3.13;;;1.40;;
22097;SDS011;11215;51.938;8.464;2022-10-16T12:53:24;3.27;;;1.27;;
22097;SDS011;11215;51.938;8.464;2022-10-16T12:56:01;2.23;;;1.20;;
22097;SDS011;11215;51.938;8.464;2022-10-16T13:01:11;2.70;;;1.10;;
22097;SDS011;11215;51.938;8.464;2022-10-16T13:19:59;1.07;;;0.80;;
22097;SDS011;11215;51.938;8.464;2022-10-16T13:30:28;1.90;;;0.80;;
22097;SDS011;11215;51.938;8.464;2022-10-16T13:33:02;2.00;;;0.70;;
22097;SDS011;11215;51.938;8.464;2022-10-16T13:35:32;1.93;;;1.20;;
22097;SDS011;11215;51.938;8.464;2022-10-16T13:38:16;2.50;;;1.00;;
22097;SDS011;11215;51.938;8.464;2022-10-16T13:40:51;2.30;;;1.10;;
22097;SDS011;11215;51.938;8.464;2022-10-16T13:43:28;1.00;;;0.90;;
22097;SDS011;11215;51.938;8.464;2022-10-16T13:46:06;2.17;;;1.07;;
22097;SDS011;11215;51.938;8.464;2022-10-16T13:48:37;2.87;;;1.20;;
22097;SDS011;11215;51.938;8.464;2022-10-16T13:53:32;2.60;;;0.90;;
22097;SDS011;11215;51.938;8.464;2022-10-16T13:55:59;1.30;;;1.07;;
22097;SDS011;11215;51.938;8.464;2022-10-16T13:58:26;1.17;;;1.07;;
22097;SDS011;11215;51.938;8.464;2022-10-16T14:00:57;1.13;;;1.10;;
22097;SDS011;11215;51.938;8.464;2022-10-16T14:03:24;3.83;;;1.00;;
22097;SDS011;11215;51.938;8.464;2022-10-16T14:05:54;3.03;;;1.30;;
22097;SDS011;11215;51.938;8.464;2022-10-16T14:08:23;1.40;;;1.13;;
22097;SDS011;11215;51.938;8.464;2022-10-16T14:10:51;1.73;;;1.00;;
22097;SDS011;11215;51.938;8.464;2022-10-16T14:13:22;1.77;;;0.93;;
22097;SDS011;11215;51.938;8.464;2022-10-16T14:15:54;2.47;;;1.20;;
22097;SDS011;11215;51.938;8.464;2022-10-16T14:18:24;1.73;;;1.20;;
22097;SDS011;11215;51.938;8.464;2022-10-16T14:20:52;2.03;;;0.83;;
22097;SDS011;11215;51.938;8.464;2022-10-16T14:25:48;1.13;;;0.90;;
22097;SDS011;11215;51.938;8.464;2022-10-16T14:28:21;1.67;;;0.83;;
22097;SDS011;11215;51.938;8.464;2022-10-16T14:30:55;2.50;;;1.20;;
22097;SDS011;11215;51.938;8.464;2022-10-16T14:36:18;2.67;;;1.10;;
22097;SDS011;11215;51.938;8.464;2022-10-16T14:38:51;0.60;;;0.60;;
22097;SDS011;11215;51.938;8.464;2022-10-16T14:41:40;1.20;;;0.70;;
22097;SDS011;11215;51.938;8.464;2022-10-16T14:44:09;0.90;;;0.50;;
22097;SDS011;11215;51.938;8.464;2022-10-16T14:46:37;2.87;;;0.73;;
22097;SDS011;11215;51.938;8.464;2022-10-16T14:51:37;1.77;;;0.60;;
22097;SDS011;11215;51.938;8.464;2022-10-16T14:54:09;1.63;;;0.70;;
22097;SDS011;11215;51.938;8.464;2022-10-16T14:59:15;0.50;;;0.50;;
22097;SDS011;11215;51.938;8.464;2022-10-16T15:01:44;1.30;;;1.10;;
22097;SDS011;11215;51.938;8.464;2022-10-16T15:04:11;3.77;;;1.53;;
22097;SDS011;11215;51.938;8.464;2022-10-16T15:06:38;2.10;;;1.20;;
22097;SDS011;11215;51.938;8.464;2022-10-16T15:09:04;1.03;;;0.70;;
22097;SDS011;11215;51.938;8.464;2022-10-16T15:11:30;1.23;;;0.57;;
22097;SDS011;11215;51.938;8.464;2022-10-16T15:13:57;2.13;;;0.60;;
22097;SDS011;11215;51.938;8.464;2022-10-16T15:16:23;0.90;;;0.47;;
22097;SDS011;11215;51.938;8.464;2022-10-16T15:18:48;1.30;;;0.50;;
22097;SDS011;11215;51.938;8.464;2022-10-16T15:21:22;2.77;;;0.70;;
22097;SDS011;11215;51.938;8.464;2022-10-16T15:23:54;1.67;;;0.70;;
22097;SDS011;11215;51.938;8.464;2022-10-16T15:26:22;1.80;;;0.80;;
22097;SDS011;11215;51.938;8.464;2022-10-16T15:28:51;1.97;;;0.60;;
22097;SDS011;11215;51.938;8.464;2022-10-16T15:31:17;1.77;;;0.50;;
22097;SDS011;11215;51.938;8.464;2022-10-16T15:33:43;1.07;;;0.67;;
22097;SDS011;11215;51.938;8.464;2022-10-16T15:36:13;0.90;;;0.63;;
22097;SDS011;11215;51.938;8.464;2022-10-16T15:38:38;1.67;;;0.50;;
22097;SDS011;11215;51.938;8.464;2022-10-16T15:41:04;1.27;;;0.60;;
22097;SDS011;11215;51.938;8.464;2022-10-16T15:43:30;0.60;;;0.50;;
22097;SDS011;11215;51.938;8.464;2022-10-16T15:48:29;1.90;;;0.70;;
22097;SDS011;11215;51.938;8.464;2022-10-16T15:50:55;2.43;;;0.63;;
22097;SDS011;11215;51.938;8.464;2022-10-16T15:53:21;1.77;;;0.50;;
22097;SDS011;11215;51.938;8.464;2022-10-16T15:55:47;1.13;;;0.50;;
22097;SDS011;11215;51.938;8.464;2022-10-16T15:58:12;1.40;;;0.60;;
22097;SDS011;11215;51.938;8.464;2022-10-16T16:00:38;2.70;;;0.60;;
22097;SDS011;11215;51.938;8.464;2022-10-16T16:03:04;1.73;;;0.87;;
22097;SDS011;11215;51.938;8.464;2022-10-16T16:05:30;1.17;;;0.50;;
22097;SDS011;11215;51.938;8.464;2022-10-16T16:07:56;3.13;;;0.83;;
22097;SDS011;11215;51.938;8.464;2022-10-16T16:10:22;1.97;;;0.77;;
22097;SDS011;11215;51.938;8.464;2022-10-16T16:12:48;1.90;;;0.60;;
22097;SDS011;11215;51.938;8.464;2022-10-16T16:15:16;3.87;;;0.87;;
22097;SDS011;11215;51.938;8.464;2022-10-16T16:17:43;2.83;;;1.20;;
22097;SDS011;11215;51.938;8.464;2022-10-16T16:20:09;2.00;;;1.40;;
22097;SDS011;11215;51.938;8.464;2022-10-16T16:22:36;2.20;;;1.20;;
22097;SDS011;11215;51.938;8.464;2022-10-16T16:25:01;2.50;;;1.20;;
22097;SDS011;11215;51.938;8.464;2022-10-16T16:27:28;3.50;;;1.60;;
22097;SDS011;11215;51.938;8.464;2022-10-16T16:29:58;3.83;;;2.07;;
22097;SDS011;11215;51.938;8.464;2022-10-16T16:32:24;8.70;;;5.30;;
22097;SDS011;11215;51.938;8.464;2022-10-16T16:34:50;6.30;;;5.53;;
22097;SDS011;11215;51.938;8.464;2022-10-16T16:37:16;7.67;;;5.83;;
22097;SDS011;11215;51.938;8.464;2022-10-16T16:39:42;7.33;;;5.27;;
22097;SDS011;11215;51.938;8.464;2022-10-16T16:42:08;7.37;;;5.53;;
22097;SDS011;11215;51.938;8.464;2022-10-16T16:44:35;5.33;;;4.43;;
22097;SDS011;11215;51.938;8.464;2022-10-16T16:47:02;5.90;;;5.10;;
22097;SDS011;11215;51.938;8.464;2022-10-16T16:49:28;5.67;;;2.90;;
22097;SDS011;11215;51.938;8.464;2022-10-16T16:51:54;5.83;;;3.23;;
22097;SDS011;11215;51.938;8.464;2022-10-16T16:54:21;10.87;;;8.00;;
22097;SDS011;11215;51.938;8.464;2022-10-16T16:56:47;10.00;;;7.93;;
22097;SDS011;11215;51.938;8.464;2022-10-16T16:59:14;8.47;;;7.57;;
22097;SDS011;11215;51.938;8.464;2022-10-16T17:01:41;9.40;;;7.63;;
22097;SDS011;11215;51.938;8.464;2022-10-16T17:04:07;13.63;;;10.30;;
22097;SDS011;11215;51.938;8.464;2022-10-16T17:06:33;13.40;;;10.80;;
22097;SDS011;11215;51.938;8.464;2022-10-16T17:09:00;13.57;;;10.47;;
22097;SDS011;11215;51.938;8.464;2022-10-16T17:11:28;12.00;;;9.37;;
22097;SDS011;11215;51.938;8.464;2022-10-16T17:13:54;10.93;;;8.50;;
22097;SDS011;11215;51.938;8.464;2022-10-16T17:16:22;9.23;;;8.03;;
22097;SDS011;11215;51.938;8.464;2022-10-16T17:18:50;8.90;;;5.83;;
22097;SDS011;11215;51.938;8.464;2022-10-16T17:21:18;9.20;;;6.37;;
22097;SDS011;11215;51.938;8.464;2022-10-16T17:23:44;7.93;;;6.57;;